createdAt,value
2019-03-17T00:00:31.476Z,985.09
2019-03-17T00:01:31.464Z,985.06
2019-03-17T00:02:31.468Z,984.98
2019-03-17T00:03:31.466Z,984.98
2019-03-17T00:04:32.008Z,984.93
2019-03-17T00:05:31.467Z,985.02
2019-03-17T00:06:31.477Z,984.94
2019-03-17T00:07:31.466Z,984.96
2019-03-17T00:08:31.468Z,984.99
2019-03-17T00:09:31.466Z,984.96
2019-03-17T00:10:29.745Z,984.95
2019-03-17T00:11:31.473Z,984.83
2019-03-17T00:12:31.722Z,984.87
2019-03-17T00:13:31.468Z,984.88
2019-03-17T00:14:31.466Z,984.81
2019-03-17T00:15:31.476Z,984.85
2019-03-17T00:16:29.661Z,984.88
2019-03-17T00:17:31.465Z,984.88
2019-03-17T00:18:31.466Z,984.82
2019-03-17T00:19:31.454Z,984.87
2019-03-17T00:20:31.468Z,984.78
2019-03-17T00:21:31.475Z,984.72
2019-03-17T00:22:31.471Z,984.72
2019-03-17T00:23:31.464Z,984.73
2019-03-17T00:24:31.452Z,984.63
2019-03-17T00:25:31.463Z,984.64
2019-03-17T00:26:31.464Z,984.62
2019-03-17T00:27:31.477Z,984.71
2019-03-17T00:28:32.466Z,984.60
2019-03-17T00:29:31.465Z,984.55
2019-03-17T00:30:31.470Z,984.57
2019-03-17T00:31:31.462Z,984.63
2019-03-17T00:32:31.462Z,984.60
2019-03-17T00:33:31.464Z,984.51
2019-03-17T00:34:43.268Z,984.49
2019-03-17T00:35:31.977Z,984.57
2019-03-17T00:36:30.968Z,984.44
2019-03-17T00:37:30.963Z,984.56
2019-03-17T00:38:30.977Z,984.56
2019-03-17T00:39:30.964Z,984.55
2019-03-17T00:40:30.974Z,984.55
2019-03-17T00:41:31.778Z,984.49
2019-03-17T00:42:30.964Z,984.56
2019-03-17T00:43:30.952Z,984.51
2019-03-17T00:44:30.958Z,984.55
2019-03-17T00:45:30.968Z,984.46
2019-03-17T00:46:30.973Z,984.47
2019-03-17T00:47:30.963Z,984.48
2019-03-17T00:48:30.963Z,984.48
2019-03-17T00:49:30.963Z,984.47
2019-03-17T00:50:30.961Z,984.52
2019-03-17T00:51:30.970Z,984.54
2019-03-17T00:52:30.962Z,984.47
2019-03-17T00:53:30.973Z,984.44
2019-03-17T00:54:30.966Z,984.49
2019-03-17T00:55:30.951Z,984.48
2019-03-17T00:56:30.968Z,984.39
2019-03-17T00:57:30.972Z,984.30
2019-03-17T00:58:30.972Z,984.39
2019-03-17T00:59:30.962Z,984.39
2019-03-17T01:00:30.964Z,984.35
2019-03-17T01:01:30.962Z,984.34
2019-03-17T01:02:30.960Z,984.30
2019-03-17T01:03:30.978Z,984.10
2019-03-17T01:04:30.949Z,984.28
2019-03-17T01:05:31.297Z,984.14
2019-03-17T01:06:30.972Z,984.14
2019-03-17T01:07:30.961Z,984.15
2019-03-17T01:08:30.961Z,984.10
2019-03-17T01:09:30.958Z,984.06
2019-03-17T01:10:30.963Z,984.04
2019-03-17T01:11:29.060Z,984.05
2019-03-17T01:12:30.977Z,984.04
2019-03-17T01:13:30.962Z,984.04
2019-03-17T01:14:30.964Z,984.04
2019-03-17T01:15:30.949Z,983.98
2019-03-17T01:16:30.960Z,984.00
2019-03-17T01:17:30.959Z,983.88
2019-03-17T01:18:31.017Z,983.96
2019-03-17T01:19:30.961Z,983.99
2019-03-17T01:20:30.461Z,983.88
2019-03-17T01:21:30.471Z,983.96
2019-03-17T01:22:30.461Z,983.87
2019-03-17T01:23:28.923Z,983.90
2019-03-17T01:24:30.472Z,983.94
2019-03-17T01:25:30.460Z,983.97
2019-03-17T01:26:30.496Z,983.87
2019-03-17T01:27:30.452Z,983.90
2019-03-17T01:28:30.453Z,983.84
2019-03-17T01:29:28.871Z,983.78
2019-03-17T01:30:30.468Z,983.85
2019-03-17T01:31:30.460Z,983.85
2019-03-17T01:32:30.471Z,983.81
2019-03-17T01:33:30.460Z,983.76
2019-03-17T01:34:30.457Z,983.88
2019-03-17T01:35:32.720Z,983.80
2019-03-17T01:36:30.447Z,983.79
2019-03-17T01:37:30.459Z,983.80
2019-03-17T01:38:30.459Z,983.70
2019-03-17T01:39:30.459Z,983.88
2019-03-17T01:40:30.470Z,983.75
2019-03-17T01:41:30.457Z,983.73
2019-03-17T01:42:30.459Z,983.76
2019-03-17T01:43:30.459Z,983.75
2019-03-17T01:44:30.460Z,983.72
2019-03-17T01:45:30.459Z,983.64
2019-03-17T01:46:30.465Z,983.66
2019-03-17T01:47:28.658Z,983.64
2019-03-17T01:48:30.459Z,983.61
2019-03-17T01:49:30.482Z,983.49
2019-03-17T01:50:30.456Z,983.57
2019-03-17T01:51:30.465Z,983.59
2019-03-17T01:52:30.446Z,983.48
2019-03-17T01:53:30.470Z,983.42
2019-03-17T01:54:30.463Z,983.39
2019-03-17T01:55:30.460Z,983.43
2019-03-17T01:56:30.463Z,983.30
2019-03-17T01:57:30.455Z,983.27
2019-03-17T01:58:30.459Z,983.31
2019-03-17T01:59:30.458Z,983.25
2019-03-17T02:00:30.459Z,983.30
2019-03-17T02:01:30.458Z,983.29
2019-03-17T02:02:30.474Z,983.29
2019-03-17T02:03:30.456Z,983.30
2019-03-17T02:04:30.458Z,983.31
2019-03-17T02:05:28.463Z,983.27
2019-03-17T02:06:29.959Z,983.25
2019-03-17T02:07:29.970Z,983.34
2019-03-17T02:08:29.958Z,983.27
2019-03-17T02:09:29.962Z,983.22
2019-03-17T02:10:29.956Z,983.26
2019-03-17T02:11:29.956Z,983.30
2019-03-17T02:12:29.958Z,983.28
2019-03-17T02:13:29.965Z,983.22
2019-03-17T02:14:29.945Z,983.25
2019-03-17T02:15:29.945Z,983.17
2019-03-17T02:16:29.945Z,983.15
2019-03-17T02:17:29.955Z,983.27
2019-03-17T02:18:29.957Z,983.29
2019-03-17T02:19:29.989Z,983.23
2019-03-17T02:20:29.960Z,983.29
2019-03-17T02:21:29.978Z,983.26
2019-03-17T02:22:29.971Z,983.25
2019-03-17T02:23:29.945Z,983.22
2019-03-17T02:24:29.945Z,983.19
2019-03-17T02:25:29.971Z,983.16
2019-03-17T02:26:29.966Z,983.16
2019-03-17T02:27:29.956Z,983.19
2019-03-17T02:28:29.964Z,983.20
2019-03-17T02:29:29.957Z,983.22
2019-03-17T02:30:29.962Z,983.26
2019-03-17T02:31:29.956Z,983.29
2019-03-17T02:32:29.955Z,983.18
2019-03-17T02:33:29.958Z,983.22
2019-03-17T02:34:29.960Z,983.15
2019-03-17T02:35:38.551Z,983.11
2019-03-17T02:36:30.960Z,983.12
2019-03-17T02:37:29.960Z,983.16
2019-03-17T02:38:29.961Z,983.12
2019-03-17T02:39:29.954Z,983.12
2019-03-17T02:40:29.955Z,983.07
2019-03-17T02:41:29.969Z,983.07
2019-03-17T02:42:29.963Z,983.06
2019-03-17T02:43:29.964Z,983.04
2019-03-17T02:44:29.971Z,982.95
2019-03-17T02:45:29.944Z,983.14
2019-03-17T02:46:29.957Z,983.06
2019-03-17T02:47:29.956Z,982.89
2019-03-17T02:48:29.965Z,982.98
2019-03-17T02:49:30.054Z,982.93
2019-03-17T02:50:29.958Z,983.00
2019-03-17T02:51:29.958Z,982.94
2019-03-17T02:52:29.455Z,982.81
2019-03-17T02:53:29.458Z,982.84
2019-03-17T02:54:29.463Z,982.87
2019-03-17T02:55:29.456Z,982.86
2019-03-17T02:56:29.454Z,982.84
2019-03-17T02:57:29.454Z,982.80
2019-03-17T02:58:29.446Z,982.68
2019-03-17T02:59:29.472Z,982.70
2019-03-17T03:00:29.455Z,982.65
2019-03-17T03:01:29.455Z,982.56
2019-03-17T03:02:29.443Z,982.59
2019-03-17T03:03:29.463Z,982.63
2019-03-17T03:04:29.452Z,982.63
2019-03-17T03:05:29.455Z,982.61
2019-03-17T03:06:29.464Z,982.64
2019-03-17T03:07:29.465Z,982.53
2019-03-17T03:08:29.461Z,982.51
2019-03-17T03:09:29.469Z,982.53
2019-03-17T03:10:31.739Z,982.31
2019-03-17T03:11:29.451Z,982.57
2019-03-17T03:12:29.452Z,982.44
2019-03-17T03:13:29.450Z,982.42
2019-03-17T03:14:29.453Z,982.43
2019-03-17T03:15:29.464Z,982.51
2019-03-17T03:16:29.457Z,982.42
2019-03-17T03:17:29.483Z,982.49
2019-03-17T03:18:27.688Z,982.49
2019-03-17T03:19:29.456Z,982.50
2019-03-17T03:20:29.455Z,982.54
2019-03-17T03:21:29.466Z,982.47
2019-03-17T03:22:29.454Z,982.38
2019-03-17T03:23:29.452Z,982.46
2019-03-17T03:24:27.961Z,982.40
2019-03-17T03:25:29.454Z,982.38
2019-03-17T03:26:29.453Z,982.29
2019-03-17T03:27:29.463Z,982.35
2019-03-17T03:28:29.456Z,982.28
2019-03-17T03:29:29.454Z,982.31
2019-03-17T03:30:29.442Z,982.26
2019-03-17T03:31:29.451Z,982.38
2019-03-17T03:32:29.462Z,982.25
2019-03-17T03:33:29.453Z,982.18
2019-03-17T03:34:29.455Z,982.26
2019-03-17T03:35:29.451Z,982.22
2019-03-17T03:36:29.451Z,982.36
2019-03-17T03:37:28.453Z,982.19
2019-03-17T03:38:28.965Z,982.20
2019-03-17T03:39:28.953Z,982.12
2019-03-17T03:40:28.953Z,982.21
2019-03-17T03:41:28.953Z,982.10
2019-03-17T03:42:28.939Z,982.21
2019-03-17T03:43:28.958Z,982.13
2019-03-17T03:44:28.961Z,982.24
2019-03-17T03:45:28.950Z,982.22
2019-03-17T03:46:28.952Z,982.21
2019-03-17T03:47:28.952Z,982.26
2019-03-17T03:48:28.958Z,982.15
2019-03-17T03:49:28.940Z,982.12
2019-03-17T03:50:28.952Z,982.17
2019-03-17T03:51:28.957Z,982.13
2019-03-17T03:52:28.952Z,982.13
2019-03-17T03:53:28.951Z,982.24
2019-03-17T03:54:28.963Z,982.36
2019-03-17T03:55:28.949Z,982.17
2019-03-17T03:56:28.953Z,982.22
2019-03-17T03:57:28.941Z,982.10
2019-03-17T03:58:28.965Z,982.10
2019-03-17T03:59:28.951Z,982.19
2019-03-17T04:00:28.969Z,982.19
2019-03-17T04:01:28.953Z,982.17
2019-03-17T04:02:28.939Z,982.18
2019-03-17T04:03:28.950Z,982.13
2019-03-17T04:04:28.960Z,982.12
2019-03-17T04:05:32.528Z,982.20
2019-03-17T04:06:28.939Z,982.13
2019-03-17T04:07:28.969Z,982.17
2019-03-17T04:08:28.950Z,982.15
2019-03-17T04:09:28.939Z,982.12
2019-03-17T04:10:28.949Z,982.09
2019-03-17T04:11:28.958Z,982.14
2019-03-17T04:12:28.949Z,982.14
2019-03-17T04:13:28.951Z,982.22
2019-03-17T04:14:28.943Z,982.16
2019-03-17T04:15:28.956Z,982.04
2019-03-17T04:16:28.952Z,982.17
2019-03-17T04:17:28.937Z,982.20
2019-03-17T04:18:28.956Z,982.18
2019-03-17T04:19:28.950Z,982.14
2019-03-17T04:20:28.958Z,982.17
2019-03-17T04:21:28.938Z,982.12
2019-03-17T04:22:28.950Z,982.10
2019-03-17T04:23:28.950Z,982.12
2019-03-17T04:24:28.449Z,982.07
2019-03-17T04:25:28.449Z,982.09
2019-03-17T04:26:28.453Z,982.11
2019-03-17T04:27:28.447Z,982.11
2019-03-17T04:28:28.447Z,982.05
2019-03-17T04:29:28.438Z,982.15
2019-03-17T04:30:28.450Z,981.99
2019-03-17T04:31:26.895Z,982.06
2019-03-17T04:32:28.449Z,982.08
2019-03-17T04:33:28.474Z,982.16
2019-03-17T04:34:28.445Z,982.07
2019-03-17T04:35:28.446Z,982.16
2019-03-17T04:36:39.603Z,982.12
2019-03-17T04:37:27.825Z,982.05
2019-03-17T04:38:28.436Z,981.92
2019-03-17T04:39:28.446Z,982.20
2019-03-17T04:40:28.445Z,982.05
2019-03-17T04:41:28.435Z,982.02
2019-03-17T04:42:28.459Z,982.00
2019-03-17T04:43:28.352Z,982.05
2019-03-17T04:44:28.448Z,982.05
2019-03-17T04:45:28.446Z,982.09
2019-03-17T04:46:28.436Z,982.03
2019-03-17T04:47:28.446Z,982.02
2019-03-17T04:48:28.454Z,982.14
2019-03-17T04:49:28.478Z,981.97
2019-03-17T04:50:28.447Z,982.00
2019-03-17T04:51:28.460Z,982.07
2019-03-17T04:52:28.454Z,982.05
2019-03-17T04:53:28.445Z,982.13
2019-03-17T04:54:28.449Z,982.12
2019-03-17T04:55:28.447Z,982.12
2019-03-17T04:56:28.447Z,982.14
2019-03-17T04:57:28.446Z,982.19
2019-03-17T04:58:28.450Z,982.35
2019-03-17T04:59:28.447Z,982.17
2019-03-17T05:00:28.446Z,982.23
2019-03-17T05:01:28.433Z,982.26
2019-03-17T05:02:28.529Z,982.28
2019-03-17T05:03:28.457Z,982.26
2019-03-17T05:04:28.446Z,982.27
2019-03-17T05:05:28.450Z,982.32
2019-03-17T05:06:28.451Z,982.26
2019-03-17T05:07:28.443Z,982.22
2019-03-17T05:08:28.445Z,982.24
2019-03-17T05:09:28.447Z,982.22
2019-03-17T05:10:27.944Z,982.29
2019-03-17T05:11:27.953Z,982.31
2019-03-17T05:12:27.943Z,982.41
2019-03-17T05:13:27.933Z,982.33
2019-03-17T05:14:26.401Z,982.47
2019-03-17T05:15:27.945Z,982.53
2019-03-17T05:16:27.964Z,982.49
2019-03-17T05:17:27.945Z,982.57
2019-03-17T05:18:27.933Z,982.51
2019-03-17T05:19:27.948Z,982.58
2019-03-17T05:20:27.943Z,982.60
2019-03-17T05:21:27.933Z,982.43
2019-03-17T05:22:27.955Z,982.42
2019-03-17T05:23:27.944Z,982.54
2019-03-17T05:24:27.943Z,982.49
2019-03-17T05:25:27.933Z,982.42
2019-03-17T05:26:27.957Z,982.40
2019-03-17T05:27:27.946Z,982.49
2019-03-17T05:28:27.946Z,982.43
2019-03-17T05:29:27.946Z,982.49
2019-03-17T05:30:27.933Z,982.48
2019-03-17T05:31:27.951Z,982.49
2019-03-17T05:32:27.956Z,982.37
2019-03-17T05:33:27.932Z,982.44
2019-03-17T05:34:27.948Z,982.45
2019-03-17T05:35:27.944Z,982.46
2019-03-17T05:36:27.950Z,982.48
2019-03-17T05:37:27.944Z,982.56
2019-03-17T05:38:27.952Z,982.59
2019-03-17T05:39:27.932Z,982.57
2019-03-17T05:40:27.944Z,982.59
2019-03-17T05:41:27.985Z,982.58
2019-03-17T05:42:27.982Z,982.47
2019-03-17T05:43:27.954Z,982.54
2019-03-17T05:44:27.944Z,982.55
2019-03-17T05:45:26.137Z,982.44
2019-03-17T05:46:27.943Z,982.51
2019-03-17T05:47:27.951Z,982.50
2019-03-17T05:48:27.949Z,982.55
2019-03-17T05:49:27.954Z,982.46
2019-03-17T05:50:27.945Z,982.49
2019-03-17T05:51:26.943Z,982.55
2019-03-17T05:52:27.959Z,982.50
2019-03-17T05:53:27.931Z,982.53
2019-03-17T05:54:27.948Z,982.53
2019-03-17T05:55:27.951Z,982.53
2019-03-17T05:56:27.491Z,982.62
2019-03-17T05:57:27.429Z,982.54
2019-03-17T05:58:27.443Z,982.52
2019-03-17T05:59:27.444Z,982.45
2019-03-17T06:00:27.450Z,982.55
2019-03-17T06:01:27.452Z,982.44
2019-03-17T06:02:27.429Z,982.50
2019-03-17T06:03:27.448Z,982.50
2019-03-17T06:04:27.443Z,982.53
2019-03-17T06:05:27.447Z,982.52
2019-03-17T06:06:27.442Z,982.57
2019-03-17T06:07:27.447Z,982.65
2019-03-17T06:08:27.452Z,982.60
2019-03-17T06:09:25.800Z,982.61
2019-03-17T06:10:27.441Z,982.61
2019-03-17T06:11:27.445Z,982.62
2019-03-17T06:12:27.441Z,982.59
2019-03-17T06:13:27.452Z,982.64
2019-03-17T06:14:27.443Z,982.56
2019-03-17T06:15:27.429Z,982.48
2019-03-17T06:16:27.428Z,982.56
2019-03-17T06:17:27.438Z,982.58
2019-03-17T06:18:27.520Z,982.56
2019-03-17T06:19:27.440Z,982.65
2019-03-17T06:20:27.440Z,982.60
2019-03-17T06:21:27.453Z,982.67
2019-03-17T06:22:27.488Z,982.64
2019-03-17T06:23:27.500Z,982.64
2019-03-17T06:24:27.427Z,982.62
2019-03-17T06:25:27.437Z,982.68
2019-03-17T06:26:25.635Z,982.69
2019-03-17T06:27:27.439Z,982.67
2019-03-17T06:28:27.427Z,982.58
2019-03-17T06:29:27.448Z,982.68
2019-03-17T06:30:27.439Z,982.73
2019-03-17T06:31:27.439Z,982.69
2019-03-17T06:32:27.441Z,982.70
2019-03-17T06:33:27.439Z,982.77
2019-03-17T06:34:27.448Z,982.67
2019-03-17T06:35:27.437Z,982.71
2019-03-17T06:36:28.431Z,982.64
2019-03-17T06:37:31.166Z,982.79
2019-03-17T06:38:27.439Z,982.74
2019-03-17T06:39:27.450Z,982.73
2019-03-17T06:40:27.450Z,982.74
2019-03-17T06:41:27.439Z,982.77
2019-03-17T06:42:26.436Z,982.81
2019-03-17T06:43:25.428Z,982.71
2019-03-17T06:44:55.825Z,982.81
2019-03-17T06:45:57.522Z,982.82
2019-03-17T06:46:57.522Z,982.85
2019-03-17T06:47:57.533Z,982.91
2019-03-17T06:48:57.542Z,982.89
2019-03-17T06:49:57.538Z,982.94
2019-03-17T06:50:57.571Z,982.92
2019-03-17T06:51:57.593Z,982.95
2019-03-17T06:52:57.576Z,982.91
2019-03-17T06:53:57.521Z,983.02
2019-03-17T06:54:55.707Z,982.86
2019-03-17T06:55:57.535Z,983.00
2019-03-17T06:56:57.540Z,982.93
2019-03-17T06:57:57.521Z,983.02
2019-03-17T06:58:57.521Z,983.03
2019-03-17T06:59:57.541Z,983.06
2019-03-17T07:00:57.532Z,983.06
2019-03-17T07:01:57.543Z,983.05
2019-03-17T07:02:57.533Z,983.13
2019-03-17T07:03:57.533Z,983.06
2019-03-17T07:04:57.542Z,982.99
2019-03-17T07:05:57.523Z,982.94
2019-03-17T07:06:57.538Z,983.05
2019-03-17T07:07:57.551Z,983.03
2019-03-17T07:08:57.533Z,983.06
2019-03-17T07:09:57.533Z,983.09
2019-03-17T07:10:57.021Z,983.15
2019-03-17T07:11:55.518Z,983.07
2019-03-17T07:12:57.041Z,983.04
2019-03-17T07:13:57.033Z,983.17
2019-03-17T07:14:57.033Z,983.04
2019-03-17T07:15:57.033Z,983.25
2019-03-17T07:16:57.038Z,983.13
2019-03-17T07:17:57.020Z,983.16
2019-03-17T07:18:57.022Z,983.15
2019-03-17T07:19:57.046Z,983.16
2019-03-17T07:20:57.032Z,983.13
2019-03-17T07:21:57.033Z,983.16
2019-03-17T07:22:57.032Z,983.10
2019-03-17T07:23:57.040Z,983.16
2019-03-17T07:24:57.030Z,983.10
2019-03-17T07:25:57.034Z,983.11
2019-03-17T07:26:57.031Z,983.28
2019-03-17T07:27:57.038Z,983.15
2019-03-17T07:28:57.030Z,983.14
2019-03-17T07:29:57.030Z,983.22
2019-03-17T07:30:57.040Z,983.24
2019-03-17T07:31:57.047Z,983.25
2019-03-17T07:32:57.052Z,983.27
2019-03-17T07:33:57.046Z,983.24
2019-03-17T07:34:57.032Z,983.25
2019-03-17T07:35:57.033Z,983.31
2019-03-17T07:36:57.037Z,983.29
2019-03-17T07:37:57.339Z,983.42
2019-03-17T07:38:57.028Z,983.22
2019-03-17T07:39:57.029Z,983.44
2019-03-17T07:40:55.209Z,983.51
2019-03-17T07:41:57.035Z,983.40
2019-03-17T07:42:57.037Z,983.52
2019-03-17T07:43:57.042Z,983.47
2019-03-17T07:44:57.034Z,983.28
2019-03-17T07:45:57.030Z,983.37
2019-03-17T07:46:57.030Z,983.56
2019-03-17T07:47:57.029Z,983.48
2019-03-17T07:48:57.035Z,983.53
2019-03-17T07:49:57.035Z,983.56
2019-03-17T07:50:57.019Z,983.57
2019-03-17T07:51:57.028Z,983.74
2019-03-17T07:52:57.033Z,983.70
2019-03-17T07:53:57.032Z,983.71
2019-03-17T07:54:57.038Z,983.92
2019-03-17T07:55:57.030Z,983.88
2019-03-17T07:56:57.033Z,983.86
2019-03-17T07:57:56.526Z,983.89
2019-03-17T07:58:56.527Z,983.92
2019-03-17T07:59:56.529Z,984.02
2019-03-17T08:00:56.534Z,984.08
2019-03-17T08:01:56.515Z,984.13
2019-03-17T08:02:56.525Z,984.17
2019-03-17T08:03:54.960Z,984.21
2019-03-17T08:04:56.537Z,984.34
2019-03-17T08:05:56.540Z,984.43
2019-03-17T08:06:56.526Z,984.41
2019-03-17T08:08:08.250Z,984.40
2019-03-17T08:08:57.527Z,984.60
2019-03-17T08:09:56.524Z,984.57
2019-03-17T08:10:56.527Z,984.68
2019-03-17T08:11:56.531Z,984.68
2019-03-17T08:12:56.550Z,984.65
2019-03-17T08:13:56.556Z,984.73
2019-03-17T08:14:57.786Z,984.73
2019-03-17T08:15:56.533Z,984.70
2019-03-17T08:16:56.528Z,984.80
2019-03-17T08:17:56.547Z,984.73
2019-03-17T08:18:56.537Z,984.82
2019-03-17T08:19:56.548Z,984.86
2019-03-17T08:20:54.819Z,984.89
2019-03-17T08:21:56.532Z,984.88
2019-03-17T08:22:56.524Z,984.91
2019-03-17T08:23:56.524Z,984.94
2019-03-17T08:24:56.525Z,984.92
2019-03-17T08:25:56.525Z,984.91
2019-03-17T08:26:56.535Z,984.89
2019-03-17T08:27:56.546Z,984.91
2019-03-17T08:28:56.517Z,985.01
2019-03-17T08:29:56.523Z,984.94
2019-03-17T08:30:56.525Z,985.04
2019-03-17T08:31:56.542Z,985.05
2019-03-17T08:32:56.533Z,985.04
2019-03-17T08:33:56.521Z,985.10
2019-03-17T08:34:56.522Z,985.11
2019-03-17T08:35:56.522Z,985.10
2019-03-17T08:36:56.525Z,985.13
2019-03-17T08:37:54.595Z,985.07
2019-03-17T08:38:56.534Z,985.09
2019-03-17T08:39:55.574Z,985.12
2019-03-17T08:40:56.562Z,985.03
2019-03-17T08:41:56.525Z,985.06
2019-03-17T08:42:56.521Z,985.14
2019-03-17T08:43:56.028Z,985.11
2019-03-17T08:44:56.023Z,985.15
2019-03-17T08:45:56.025Z,985.23
2019-03-17T08:46:56.021Z,985.25
2019-03-17T08:47:58.263Z,985.24
2019-03-17T08:48:56.024Z,985.24
2019-03-17T08:49:56.033Z,985.21
2019-03-17T08:50:56.023Z,985.23
2019-03-17T08:51:56.027Z,985.22
2019-03-17T08:52:56.035Z,985.21
2019-03-17T08:53:56.063Z,985.16
2019-03-17T08:54:54.496Z,985.25
2019-03-17T08:55:56.010Z,985.22
2019-03-17T08:56:56.024Z,985.20
2019-03-17T08:57:56.022Z,985.26
2019-03-17T08:58:56.023Z,985.28
2019-03-17T08:59:56.023Z,985.35
2019-03-17T09:00:56.026Z,985.41
2019-03-17T09:01:56.024Z,985.41
2019-03-17T09:02:56.022Z,985.43
2019-03-17T09:03:56.033Z,985.33
2019-03-17T09:04:56.026Z,985.34
2019-03-17T09:05:56.023Z,985.34
2019-03-17T09:06:56.025Z,985.41
2019-03-17T09:07:56.012Z,985.39
2019-03-17T09:08:56.023Z,985.41
2019-03-17T09:09:56.021Z,985.43
2019-03-17T09:10:56.030Z,985.45
2019-03-17T09:11:54.234Z,985.51
2019-03-17T09:12:56.028Z,985.59
2019-03-17T09:13:56.028Z,985.62
2019-03-17T09:14:56.020Z,985.68
2019-03-17T09:15:56.023Z,985.70
2019-03-17T09:16:56.033Z,985.70
2019-03-17T09:17:56.023Z,985.64
2019-03-17T09:18:56.022Z,985.63
2019-03-17T09:19:56.019Z,985.69
2019-03-17T09:20:56.065Z,985.77
2019-03-17T09:21:56.054Z,985.68
2019-03-17T09:22:56.021Z,985.67
2019-03-17T09:23:56.020Z,985.64
2019-03-17T09:24:56.012Z,985.64
2019-03-17T09:25:56.030Z,985.67
2019-03-17T09:26:56.027Z,985.67
2019-03-17T09:27:56.009Z,985.66
2019-03-17T09:28:54.054Z,985.76
2019-03-17T09:29:56.023Z,985.75
2019-03-17T09:30:55.529Z,985.72
2019-03-17T09:31:55.523Z,985.73
2019-03-17T09:32:55.513Z,985.73
2019-03-17T09:33:55.537Z,985.72
2019-03-17T09:34:55.553Z,985.75
2019-03-17T09:35:55.597Z,985.67
2019-03-17T09:36:55.519Z,985.65
2019-03-17T09:37:55.520Z,985.56
2019-03-17T09:38:55.518Z,985.59
2019-03-17T09:39:53.941Z,985.64
2019-03-17T09:40:55.531Z,985.59
2019-03-17T09:41:55.527Z,985.68
2019-03-17T09:42:55.526Z,985.63
2019-03-17T09:43:55.518Z,985.68
2019-03-17T09:44:55.506Z,985.65
2019-03-17T09:45:55.517Z,985.64
2019-03-17T09:46:55.526Z,985.71
2019-03-17T09:47:55.506Z,985.75
2019-03-17T09:48:55.521Z,985.77
2019-03-17T09:49:55.518Z,985.78
2019-03-17T09:50:53.833Z,985.74
2019-03-17T09:51:55.517Z,985.76
2019-03-17T09:52:55.518Z,985.85
2019-03-17T09:53:55.519Z,985.86
2019-03-17T09:54:55.520Z,985.83
2019-03-17T09:55:55.518Z,985.82
2019-03-17T09:56:55.523Z,985.83
2019-03-17T09:57:55.515Z,985.81
2019-03-17T09:58:55.515Z,985.74
2019-03-17T09:59:55.518Z,985.74
2019-03-17T10:00:55.540Z,985.68
2019-03-17T10:01:55.026Z,985.64
2019-03-17T10:02:55.575Z,985.58
2019-03-17T10:03:55.517Z,985.65
2019-03-17T10:04:55.507Z,985.61
2019-03-17T10:05:55.515Z,985.63
2019-03-17T10:06:55.517Z,985.67
2019-03-17T10:07:55.529Z,985.72
2019-03-17T10:09:00.182Z,985.76
2019-03-17T10:09:56.515Z,985.69
2019-03-17T10:10:55.526Z,985.69
2019-03-17T10:11:55.505Z,985.74
2019-03-17T10:12:55.520Z,985.71
2019-03-17T10:13:55.530Z,985.70
2019-03-17T10:14:55.519Z,985.69
2019-03-17T10:15:55.520Z,985.67
2019-03-17T10:16:55.510Z,985.67
2019-03-17T10:17:53.516Z,985.60
